ADDS METAR Data INFO
IDs: Format: Raw Decoded Include TAF

Data at: 2051 UTC 24 Jun 2018

KPEQ 242035Z AUTO 23015G23KT 10SM CLR 42/05 A2975 RMK AO2 LTG DSNT N T04160046
KPEQ 242015Z AUTO 25023G28KT 10SM CLR 42/05 A2975 RMK AO2 T04160046
KPEQ 241955Z AUTO 25019G25KT 10SM CLR 42/05 A2976 RMK AO2 LTG DSNT N T04150048
KPEQ 241935Z AUTO 24018G24KT 10SM CLR 41/06 A2976 RMK AO2 T04120060
KPEQ 241915Z AUTO 25012G25KT 10SM CLR 41/06 A2976 RMK AO2 T04130055
KPEQ 241855Z AUTO 25020G26KT 10SM CLR 41/06 A2977 RMK AO2 T04110060
KPEQ 241835Z AUTO 25017G22KT 10SM CLR 41/06 A2978 RMK AO2 T04060064
KPEQ 241815Z AUTO 23020G25KT 10SM CLR 40/06 A2978 RMK AO2 T04020062
KPEQ 241755Z AUTO 23018G23KT 10SM CLR 40/07 A2979 RMK AO2 T03990066 10401 20218
KPEQ 241735Z AUTO 23016G23KT 10SM CLR 40/06 A2979 RMK AO2 T03950062
KPEQ 241715Z AUTO 25016G20KT 10SM CLR 39/06 A2979 RMK AO2 T03940062
KPEQ 241655Z AUTO 24015G20KT 10SM CLR 39/06 A2980 RMK AO2 T03890063
KPEQ 241635Z AUTO 26015G19KT 10SM CLR 39/06 A2980 RMK AO2 T03860056
KPEQ 241615Z AUTO 24013KT 10SM CLR 38/06 A2980 RMK AO2 T03790059
KPEQ 241555Z AUTO 25011KT 10SM CLR 37/07 A2980 RMK AO2 T03720065
KPEQ 241535Z AUTO 25009KT 10SM CLR 37/06 A2980 RMK AO2 T03660064
KPEQ 241515Z AUTO 24011KT 10SM CLR 36/07 A2980 RMK AO2 T03590071
KPEQ 241455Z AUTO 16005KT 10SM CLR 33/11 A2980 RMK AO2 T03290112
KPEQ 241435Z AUTO 15005KT 10SM CLR 31/12 A2981 RMK AO2 T03120118
KPEQ 241415Z AUTO 15005KT 10SM CLR 30/11 A2981 RMK AO2 T03040106
KPEQ 241355Z AUTO 18005KT 10SM CLR 29/10 A2980 RMK AO2 T02890102
KPEQ 241335Z AUTO 15003KT 10SM CLR 28/13 A2980 RMK AO2 T02800125
KPEQ 241315Z AUTO 14003KT 10SM CLR 26/13 A2980 RMK AO2 T02620125
KPEQ 241255Z AUTO 17005KT 10SM CLR 25/11 A2979 RMK AO2 T02510112
KPEQ 241235Z AUTO 18005KT 10SM CLR 23/13 A2979 RMK AO2 T02270133
KPEQ 241215Z AUTO 17005KT 10SM CLR 23/14 A2979 RMK AO2 T02260136
KPEQ 241155Z AUTO 17005KT 10SM CLR 22/14 A2978 RMK AO2 T02150135 10315 20201
KPEQ 241135Z AUTO 13004KT 10SM CLR 21/14 A2978 RMK AO2 T02100135
KPEQ 241115Z AUTO 14005KT 10SM CLR 22/10 A2977 RMK AO2 T02210098
KPEQ 241055Z AUTO 15004KT 10SM CLR 23/09 A2976 RMK AO2 T02270089
KPEQ 241035Z AUTO 18003KT 10SM CLR 23/08 A2976 RMK AO2 T02260077
KPEQ 241015Z AUTO 20006KT 10SM CLR 23/07 A2975 RMK AO2 T02340069
KPEQ 240955Z AUTO 19007KT 10SM CLR 22/10 A2975 RMK AO2 T02180104
KPEQ 240935Z AUTO 16005KT 10SM CLR 22/12 A2974 RMK AO2 T02220123
KPEQ 240915Z AUTO 18006KT 10SM CLR 24/15 A2974 RMK AO2 T02350146
KPEQ 240855Z AUTO 19003KT 10SM CLR 25/17 A2973 RMK AO2 T02500165
KPEQ 240835Z AUTO 13006KT 10SM CLR 26/17 A2973 RMK AO2 T02590167
KPEQ 240815Z AUTO 11003KT 10SM CLR 27/17 A2972 RMK AO2 T02720170
KPEQ 240755Z AUTO 12006KT 10SM CLR 29/17 A2972 RMK AO2 T02850170
KPEQ 240735Z AUTO 14008KT 10SM CLR 30/17 A2972 RMK AO2 T02960173
KPEQ 240715Z AUTO 13011KT 10SM CLR 30/18 A2971 RMK AO2 T03040175
KPEQ 240655Z AUTO 13014G20KT 10SM CLR 31/18 A2971 RMK AO2 T03090175
KPEQ 240635Z AUTO 13016KT 10SM CLR 31/18 A2972 RMK AO2 T03130175
KPEQ 240615Z AUTO 13013KT 10SM CLR 31/17 A2972 RMK AO2 T03140174
KPEQ 240555Z AUTO 13010KT 10SM CLR 31/17 A2972 RMK AO2 T03110171 10410 20280 404170201
KPEQ 240535Z AUTO 13009KT 10SM CLR 32/17 A2972 RMK AO2 T03150170
KPEQ 240515Z AUTO 13009KT 10SM CLR 32/17 A2971 RMK AO2 T03150170
KPEQ 240455Z AUTO 13009KT 10SM CLR 31/17 A2971 RMK AO2 T03120167
KPEQ 240435Z AUTO 13008KT 10SM CLR 31/16 A2970 RMK AO2 T03100158
KPEQ 240415Z AUTO 14006KT 10SM CLR 29/13 A2970 RMK AO2 T02910127
KPEQ 240355Z AUTO 12006KT 10SM CLR 28/11 A2970 RMK AO2 T02820109
KPEQ 240335Z AUTO 13007KT 10SM CLR 29/10 A2970 RMK AO2 T02900100
KPEQ 240315Z AUTO 11006KT 10SM CLR 30/10 A2969 RMK AO2 T03000095
KPEQ 240255Z AUTO 12006KT 10SM CLR 31/09 A2969 RMK AO2 T03060087
KPEQ 240235Z AUTO 11005KT 10SM CLR 32/09 A2969 RMK AO2 T03200085
KPEQ 240215Z AUTO 08005KT 10SM CLR 33/08 A2968 RMK AO2 T03330076
KPEQ 240155Z AUTO 07006KT 10SM CLR 35/07 A2967 RMK AO2 T03480071
KPEQ 240135Z AUTO 07006KT 10SM CLR 37/06 A2967 RMK AO2 T03690059
KPEQ 240115Z AUTO 08008KT 10SM CLR 39/04 A2966 RMK AO2 T03850037
KPEQ 240055Z AUTO 08008KT 10SM CLR 40/03 A2967 RMK AO2 T03960034
KPEQ 240035Z AUTO 08009KT 10SM CLR 40/03 A2967 RMK AO2 T04030034
KPEQ 240015Z AUTO 08008KT 10SM CLR 41/02 A2967 RMK AO2 T04070019
KPEQ 232355Z AUTO 04007KT 10SM CLR 41/02 A2967 RMK AO2 T04100017 10417 20362
KPEQ 232335Z AUTO 05009KT 10SM CLR 41/02 A2968 RMK AO2 T04120016
KPEQ 232315Z AUTO 04007KT 10SM CLR 41/01 A2969 RMK AO2 T04130008
KPEQ 232255Z AUTO 05009KT 10SM CLR 42/01 A2969 RMK AO2 T04150008
KPEQ 232235Z AUTO 03009KT 10SM CLR 42/01 A2969 RMK AO2 T04160011
KPEQ 232215Z AUTO 35009G14KT 10SM CLR 42/02 A2970 RMK AO2 T04160023
KPEQ 232155Z AUTO 33007KT 300V360 10SM CLR 42/04 A2970 RMK AO2 T04150035
KPEQ 232135Z AUTO 35007G16KT 320V030 10SM CLR 41/04 A2971 RMK AO2 T04140037
KPEQ 232115Z AUTO 36007KT 10SM CLR 41/04 A2972 RMK AO2 T04070040
KPEQ 232055Z AUTO 35009KT 10SM CLR 41/06 A2972 RMK AO2 T04060059
KPEQ 232035Z AUTO 36005KT 10SM CLR 40/07 A2973 RMK AO2 T03980068
KPEQ 232015Z AUTO 36008KT 300V030 10SM CLR 40/08 A2973 RMK AO2 T03970078
KPEQ 231955Z AUTO 34008KT 10SM CLR 40/08 A2974 RMK AO2 T03950083
KPEQ 231935Z AUTO 36009KT 10SM CLR 39/09 A2975 RMK AO2 T03890089
KPEQ 231915Z AUTO 34011G16KT 10SM CLR 38/10 A2976 RMK AO2 T03840095
KPEQ 231855Z AUTO 35012KT 10SM CLR 38/10 A2976 RMK AO2 T03760100
KPEQ 231835Z AUTO 34012G16KT 10SM CLR 37/10 A2977 RMK AO2 T03690100
KPEQ 231815Z AUTO 32011G16KT 10SM CLR 37/11 A2978 RMK AO2 T03670106
KPEQ 231755Z AUTO 36012G17KT 10SM CLR 36/11 A2978 RMK AO2 T03620107 10362 20201
KPEQ 231735Z AUTO 35013KT 10SM CLR 36/11 A2979 RMK AO2 T03550110
KPEQ 231715Z AUTO 34014KT 10SM CLR 35/11 A2979 RMK AO2 T03480108
KPEQ 231655Z AUTO 33014KT 10SM CLR 35/10 A2979 RMK AO2 T03490098
KPEQ 231635Z AUTO 33012KT 10SM CLR 34/10 A2979 RMK AO2 T03420096
KPEQ 231615Z AUTO 34013KT 10SM CLR 35/09 A2978 RMK AO2 T03450094
KPEQ 231555Z AUTO 32014KT 10SM CLR 34/09 A2978 RMK AO2 T03370093
KPEQ 231535Z AUTO 33010KT 10SM CLR 33/15 A2978 RMK AO2 T03300152
KPEQ 231515Z AUTO 02005KT 10SM CLR 32/16 A2978 RMK AO2 T03170160
KPEQ 231455Z AUTO 03004KT 10SM CLR 30/16 A2977 RMK AO2 T03010162
KPEQ 231435Z AUTO 05005KT 10SM CLR 29/17 A2977 RMK AO2 T02880168
KPEQ 231415Z AUTO 02004KT 10SM CLR 28/17 A2977 RMK AO2 T02760171
KPEQ 231355Z AUTO 01006KT 10SM CLR 26/18 A2977 RMK AO2 T02620179
KPEQ 231335Z AUTO 00000KT 10SM CLR 24/17 A2975 RMK AO2 T02430171
KPEQ 231315Z AUTO 00000KT 10SM CLR 23/17 A2975 RMK AO2 T02320170
KPEQ 231255Z AUTO 00000KT 10SM CLR 23/17 A2975 RMK AO2 T02250168
KPEQ 231235Z AUTO 00000KT 10SM CLR 21/17 A2975 RMK AO2 T02100167
KPEQ 231215Z AUTO 00000KT 10SM CLR 20/17 A2975 RMK AO2 T02020165
KPEQ 231155Z AUTO 14004KT 10SM CLR 21/17 A2974 RMK AO2 T02090166 10285 20209
KPEQ 231135Z AUTO 13004KT 10SM CLR 21/17 A2973 RMK AO2 T02130167
KPEQ 231115Z AUTO 11003KT 10SM CLR 23/17 A2973 RMK AO2 T02260168
KPEQ 231055Z AUTO 06003KT 10SM CLR 23/17 A2973 RMK AO2 T02310171
KPEQ 231035Z AUTO 07003KT 10SM CLR 24/17 A2972 RMK AO2 T02350170
KPEQ 231015Z AUTO 00000KT 10SM CLR 24/17 A2973 RMK AO2 T02410170
KPEQ 230955Z AUTO 01003KT 10SM CLR 24/18 A2973 RMK AO2 T02390175
KPEQ 230935Z AUTO 06005KT 10SM CLR 24/17 A2972 RMK AO2 T02370170
KPEQ 230915Z AUTO 07005KT 10SM CLR 24/17 A2972 RMK AO2 T02400168
KPEQ 230855Z AUTO 07005KT 10SM CLR 24/17 A2972 RMK AO2 T02430168